createdAt,value
2017-07-24T00:01:04.865Z,8.63
2017-07-24T00:03:32.464Z,7.90
2017-07-24T00:06:00.049Z,8.70
2017-07-24T00:08:27.606Z,7.93
2017-07-24T00:10:55.179Z,8.97
2017-07-24T00:13:22.742Z,8.87
2017-07-24T00:15:50.324Z,8.70
2017-07-24T00:18:18.733Z,9.30
2017-07-24T00:20:46.336Z,8.00
2017-07-24T00:23:13.948Z,8.50
2017-07-24T00:25:41.553Z,9.27
2017-07-24T00:28:09.127Z,9.23
2017-07-24T00:30:36.722Z,7.70
2017-07-24T00:33:05.057Z,8.57
2017-07-24T00:35:32.660Z,8.70
2017-07-24T00:38:00.239Z,8.20
2017-07-24T00:40:27.805Z,8.93
2017-07-24T00:42:55.402Z,7.90
2017-07-24T00:45:22.960Z,8.43
2017-07-24T00:47:50.554Z,8.77
2017-07-24T00:50:18.138Z,8.73
2017-07-24T00:52:45.874Z,8.93
2017-07-24T00:55:13.590Z,8.53
2017-07-24T00:57:41.224Z,8.23
2017-07-24T01:00:08.833Z,9.30
2017-07-24T01:02:36.463Z,8.80
2017-07-24T01:05:04.071Z,8.97
2017-07-24T01:07:32.425Z,9.10
2017-07-24T01:10:00.014Z,8.83
2017-07-24T01:12:27.583Z,8.90
2017-07-24T01:14:55.148Z,8.93
2017-07-24T01:17:22.738Z,9.40
2017-07-24T01:19:50.321Z,9.77
2017-07-24T01:22:17.913Z,8.77
2017-07-24T01:24:45.506Z,9.23
2017-07-24T01:27:13.097Z,9.13
2017-07-24T01:29:40.675Z,9.40
2017-07-24T01:32:09.046Z,8.93
2017-07-24T01:34:37.392Z,9.67
2017-07-24T01:37:04.964Z,10.03
2017-07-24T01:39:32.534Z,9.37
2017-07-24T01:42:00.126Z,9.67
2017-07-24T01:44:27.732Z,10.10
2017-07-24T01:46:55.329Z,8.90
2017-07-24T01:49:22.941Z,8.60
2017-07-24T01:51:50.548Z,9.10
2017-07-24T01:54:18.909Z,9.93
2017-07-24T01:56:46.517Z,9.40
2017-07-24T01:59:14.193Z,8.93
2017-07-24T02:01:42.087Z,9.20
2017-07-24T02:04:09.671Z,9.60
2017-07-24T02:06:38.020Z,8.90
2017-07-24T02:09:05.611Z,8.57
2017-07-24T02:11:33.956Z,9.53
2017-07-24T02:14:01.560Z,9.50
2017-07-24T02:16:29.133Z,9.90
2017-07-24T02:18:56.720Z,10.30
2017-07-24T02:21:24.301Z,9.90
2017-07-24T02:23:51.898Z,9.47
2017-07-24T02:26:19.472Z,9.80
2017-07-24T02:28:47.044Z,8.30
2017-07-24T02:31:14.682Z,10.63
2017-07-24T02:33:42.282Z,10.43
2017-07-24T02:36:09.860Z,10.50
2017-07-24T02:38:37.457Z,10.03
2017-07-24T02:41:05.043Z,9.67
2017-07-24T02:43:32.623Z,10.37
2017-07-24T02:46:00.200Z,10.33
2017-07-24T02:48:27.789Z,10.13
2017-07-24T02:50:55.378Z,10.20
2017-07-24T02:53:22.986Z,10.03
2017-07-24T02:55:51.342Z,9.53
2017-07-24T02:58:18.938Z,10.00
2017-07-24T03:00:47.275Z,10.10
2017-07-24T03:03:14.870Z,10.10
2017-07-24T03:05:43.205Z,9.87
2017-07-24T03:08:10.802Z,9.77
2017-07-24T03:10:39.154Z,10.10
2017-07-24T03:13:06.745Z,10.87
2017-07-24T03:15:35.095Z,9.80
2017-07-24T03:18:02.685Z,9.13
2017-07-24T03:20:31.042Z,9.87
2017-07-24T03:22:58.650Z,9.70
2017-07-24T03:25:26.240Z,10.13
2017-07-24T03:27:53.844Z,10.50
2017-07-24T03:30:21.414Z,9.90
2017-07-24T03:32:49.275Z,9.70
2017-07-24T03:35:16.843Z,9.20
2017-07-24T03:37:44.461Z,9.83
2017-07-24T03:40:12.092Z,10.40
2017-07-24T03:42:39.672Z,10.27
2017-07-24T03:45:07.266Z,10.27
2017-07-24T03:47:34.836Z,10.20
2017-07-24T03:50:02.415Z,10.00
2017-07-24T03:52:30.055Z,10.23
2017-07-24T03:54:57.669Z,10.23
2017-07-24T03:57:25.259Z,9.83
2017-07-24T03:59:52.863Z,10.00
2017-07-24T04:02:20.440Z,10.53
2017-07-24T04:04:48.024Z,10.90
2017-07-24T04:07:16.355Z,10.73
2017-07-24T04:09:43.939Z,10.93
2017-07-24T04:12:11.510Z,11.07
2017-07-24T04:14:39.094Z,10.47
2017-07-24T04:17:06.657Z,10.87
2017-07-24T04:19:34.253Z,11.10
2017-07-24T04:22:01.824Z,12.40
2017-07-24T04:24:29.407Z,11.90
2017-07-24T04:26:56.994Z,11.47
2017-07-24T04:29:24.584Z,11.80
2017-07-24T04:31:52.169Z,12.83
2017-07-24T04:34:19.786Z,12.50
2017-07-24T04:36:47.359Z,12.80
2017-07-24T04:39:14.953Z,12.53
2017-07-24T04:41:42.521Z,12.63
2017-07-24T04:44:10.115Z,13.27
2017-07-24T04:46:37.685Z,14.00
2017-07-24T04:49:05.278Z,12.53
2017-07-24T04:51:32.852Z,12.37
2017-07-24T04:54:00.455Z,11.80
2017-07-24T04:56:28.035Z,12.63
2017-07-24T04:58:55.645Z,13.60
2017-07-24T05:01:24.003Z,12.73
2017-07-24T05:03:51.591Z,12.57
2017-07-24T05:06:19.203Z,12.60
2017-07-24T05:08:46.772Z,12.33
2017-07-24T05:11:14.345Z,12.27
2017-07-24T05:13:43.033Z,12.13
2017-07-24T05:16:10.632Z,12.80
2017-07-24T05:18:38.214Z,12.33
2017-07-24T05:21:05.801Z,11.63
2017-07-24T05:23:33.368Z,13.50
2017-07-24T05:26:00.975Z,13.17
2017-07-24T05:28:28.558Z,11.80
2017-07-24T05:30:56.162Z,12.90
2017-07-24T05:33:23.755Z,12.07
2017-07-24T05:35:51.343Z,12.40
2017-07-24T05:38:18.927Z,11.80
2017-07-24T05:40:47.295Z,12.40
2017-07-24T05:43:14.890Z,10.57
2017-07-24T05:45:42.479Z,10.70
2017-07-24T05:48:10.065Z,11.40
2017-07-24T05:50:37.663Z,10.33
2017-07-24T05:53:06.014Z,10.90
2017-07-24T05:55:33.599Z,11.20
2017-07-24T05:58:01.955Z,10.63
2017-07-24T06:00:29.553Z,11.10
2017-07-24T06:02:57.117Z,9.77
2017-07-24T06:05:24.717Z,10.00
2017-07-24T06:07:52.278Z,9.60
2017-07-24T06:10:19.878Z,9.73
2017-07-24T06:12:47.627Z,9.70
2017-07-24T06:15:15.260Z,8.87
2017-07-24T06:17:42.831Z,8.97
2017-07-24T06:20:10.403Z,7.43
2017-07-24T06:22:39.088Z,8.57
2017-07-24T06:25:07.444Z,10.37
2017-07-24T06:27:35.032Z,8.97
2017-07-24T06:30:02.631Z,8.80
2017-07-24T06:32:30.201Z,8.40
2017-07-24T06:34:58.045Z,8.30
2017-07-24T06:37:25.638Z,9.07
2017-07-24T06:39:53.219Z,9.03
2017-07-24T06:42:21.583Z,7.27
2017-07-24T06:44:49.182Z,9.03
2017-07-24T06:47:16.768Z,8.43
2017-07-24T06:49:44.841Z,8.30
2017-07-24T06:52:12.416Z,7.80
2017-07-24T06:54:40.002Z,8.70
2017-07-24T06:57:07.620Z,8.30
2017-07-24T06:59:35.196Z,8.30
2017-07-24T07:02:02.833Z,8.40
2017-07-24T07:04:30.402Z,8.00
2017-07-24T07:06:58.033Z,8.50
2017-07-24T07:09:25.606Z,7.60
2017-07-24T07:11:53.271Z,8.17
2017-07-24T07:14:20.861Z,8.87
2017-07-24T07:16:49.253Z,7.80
2017-07-24T07:19:16.847Z,8.30
2017-07-24T07:21:44.466Z,8.33
2017-07-24T07:24:12.066Z,8.83
2017-07-24T07:26:39.663Z,8.87
2017-07-24T07:29:07.256Z,7.80
2017-07-24T07:31:35.608Z,8.00
2017-07-24T07:34:03.178Z,8.30
2017-07-24T07:36:30.800Z,7.67
2017-07-24T07:38:58.425Z,8.07
2017-07-24T07:41:26.044Z,8.87
2017-07-24T07:43:53.633Z,8.33
2017-07-24T07:46:22.023Z,7.80
2017-07-24T07:48:51.448Z,7.33
2017-07-24T07:51:19.940Z,7.70
2017-07-24T07:53:47.926Z,7.63
2017-07-24T07:56:16.041Z,7.40
2017-07-24T07:58:44.405Z,8.40
2017-07-24T08:01:12.012Z,7.73
2017-07-24T08:03:39.644Z,7.60
2017-07-24T08:06:08.280Z,7.53
2017-07-24T08:08:36.657Z,10.73
2017-07-24T08:11:04.304Z,7.20
2017-07-24T08:13:32.389Z,7.77
2017-07-24T08:15:59.955Z,6.87
2017-07-24T08:18:27.553Z,7.40
2017-07-24T08:20:55.924Z,7.20
2017-07-24T08:23:24.296Z,9.00
2017-07-24T08:25:51.904Z,8.00
2017-07-24T08:28:19.515Z,7.30
2017-07-24T08:30:47.096Z,7.73
2017-07-24T08:33:14.705Z,8.60
2017-07-24T08:35:42.307Z,9.03
2017-07-24T08:38:10.760Z,7.50
2017-07-24T08:40:38.363Z,8.07
2017-07-24T08:43:05.976Z,8.13
2017-07-24T08:45:33.556Z,8.13
2017-07-24T08:48:01.477Z,8.80
2017-07-24T08:50:29.082Z,8.17
2017-07-24T08:52:57.486Z,8.13
2017-07-24T08:55:25.048Z,9.03
2017-07-24T08:57:52.941Z,7.80
2017-07-24T09:00:20.530Z,7.93
2017-07-24T09:02:48.574Z,9.07
2017-07-24T09:05:16.192Z,8.47
2017-07-24T09:07:43.796Z,7.97
2017-07-24T09:10:11.370Z,8.27
2017-07-24T09:12:39.383Z,7.07
2017-07-24T09:15:06.944Z,7.07
2017-07-24T09:17:34.509Z,6.50
2017-07-24T09:20:02.073Z,7.07
2017-07-24T09:22:30.162Z,6.90
2017-07-24T09:24:57.758Z,6.63
2017-07-24T09:27:25.378Z,6.20
2017-07-24T09:29:52.974Z,6.70
2017-07-24T09:32:20.547Z,7.00
2017-07-24T09:34:48.909Z,7.00
2017-07-24T09:37:16.908Z,7.00
2017-07-24T09:39:44.507Z,7.33
2017-07-24T09:42:12.086Z,6.70
2017-07-24T09:44:39.692Z,8.00
2017-07-24T09:47:07.988Z,7.30
2017-07-24T09:49:35.598Z,6.70
2017-07-24T09:52:03.172Z,6.70
2017-07-24T09:54:31.525Z,6.97
2017-07-24T09:56:59.133Z,7.13
2017-07-24T09:59:26.732Z,7.00
2017-07-24T10:01:54.348Z,7.53
2017-07-24T10:04:21.976Z,7.90
2017-07-24T10:06:49.773Z,7.43
2017-07-24T10:09:17.393Z,6.30
2017-07-24T10:11:45.038Z,6.90
2017-07-24T10:14:12.613Z,6.60
2017-07-24T10:16:40.990Z,6.13
2017-07-24T10:19:09.045Z,5.73
2017-07-24T10:21:36.625Z,4.67
2017-07-24T10:24:05.126Z,4.30
2017-07-24T10:26:33.476Z,4.30
2017-07-24T10:29:01.093Z,3.50
2017-07-24T10:31:28.683Z,4.00
2017-07-24T10:33:56.294Z,4.03
2017-07-24T10:36:23.898Z,3.57
2017-07-24T10:38:51.527Z,3.80
2017-07-24T10:41:19.506Z,3.53
2017-07-24T10:43:47.509Z,3.83
2017-07-24T10:46:15.086Z,3.90
2017-07-24T10:48:43.425Z,3.37
2017-07-24T10:51:11.037Z,3.70
2017-07-24T10:53:38.639Z,3.57
2017-07-24T10:56:06.224Z,3.47
2017-07-24T10:58:33.820Z,3.43
2017-07-24T11:01:01.404Z,3.60
2017-07-24T11:03:29.006Z,3.63
2017-07-24T11:05:56.582Z,3.77
2017-07-24T11:08:25.222Z,3.53
2017-07-24T11:10:52.801Z,3.70
2017-07-24T11:13:20.611Z,4.37
2017-07-24T11:15:48.217Z,3.67
2017-07-24T11:18:15.831Z,4.17
2017-07-24T11:20:43.474Z,3.80
2017-07-24T11:23:11.075Z,4.33
2017-07-24T11:25:38.664Z,4.67
2017-07-24T11:28:07.174Z,4.30
2017-07-24T11:30:34.848Z,4.10
2017-07-24T11:33:02.413Z,4.60
2017-07-24T11:35:30.022Z,4.80
2017-07-24T11:37:57.598Z,4.80
2017-07-24T11:40:25.197Z,5.00
2017-07-24T11:42:52.765Z,5.40
2017-07-24T11:45:20.412Z,5.00
2017-07-24T11:47:47.995Z,5.90
2017-07-24T11:50:15.603Z,4.80
2017-07-24T11:52:43.954Z,4.80
2017-07-24T11:55:11.541Z,4.73
2017-07-24T11:57:39.903Z,5.40
2017-07-24T12:00:07.516Z,4.90
2017-07-24T12:02:35.085Z,5.73
2017-07-24T12:05:02.687Z,5.60
2017-07-24T12:07:30.286Z,5.00
2017-07-24T12:09:57.871Z,5.37
2017-07-24T12:12:25.469Z,4.87
2017-07-24T12:14:53.066Z,5.27
2017-07-24T12:17:20.653Z,5.30
2017-07-24T12:19:48.303Z,6.37
2017-07-24T12:22:15.898Z,4.93
2017-07-24T12:24:43.510Z,5.17
2017-07-24T12:27:11.073Z,5.67
2017-07-24T12:29:38.682Z,5.53
2017-07-24T12:32:06.265Z,4.50
2017-07-24T12:34:34.642Z,4.13
2017-07-24T12:37:03.003Z,4.10
2017-07-24T12:39:31.775Z,4.27
2017-07-24T12:41:59.329Z,4.40
2017-07-24T12:44:26.898Z,4.60
2017-07-24T12:46:54.495Z,4.53
2017-07-24T12:49:22.185Z,4.13
2017-07-24T12:51:49.793Z,1.20
2017-07-24T12:54:18.160Z,1.50
2017-07-24T12:56:45.760Z,1.23
2017-07-24T12:59:13.337Z,1.50
2017-07-24T13:01:40.919Z,1.57
2017-07-24T13:04:08.509Z,1.27
2017-07-24T13:06:36.878Z,1.80
2017-07-24T13:09:05.254Z,2.20
2017-07-24T13:11:33.620Z,2.00
2017-07-24T13:14:01.209Z,1.75
2017-07-24T13:16:28.805Z,1.83
2017-07-24T13:18:56.393Z,2.15
2017-07-24T13:21:23.999Z,2.33
2017-07-24T13:23:51.909Z,2.33
2017-07-24T13:26:20.301Z,2.00
2017-07-24T13:28:47.873Z,2.03
2017-07-24T13:31:15.456Z,1.93
2017-07-24T13:33:43.039Z,2.65
2017-07-24T13:36:10.643Z,1.85
2017-07-24T13:38:38.226Z,2.55
2017-07-24T13:41:05.818Z,2.42
2017-07-24T13:43:33.500Z,2.30
2017-07-24T13:46:01.089Z,2.50
2017-07-24T13:48:29.439Z,2.65
2017-07-24T13:50:57.023Z,2.65
2017-07-24T13:53:25.368Z,1.80
2017-07-24T13:55:52.964Z,2.25
2017-07-24T13:58:21.329Z,2.17
2017-07-24T14:00:49.697Z,2.83
2017-07-24T14:03:17.267Z,2.58
2017-07-24T14:05:44.859Z,2.70
2017-07-24T14:08:12.419Z,3.10
2017-07-24T14:10:40.419Z,3.20
2017-07-24T14:13:07.992Z,3.22
2017-07-24T14:15:35.590Z,2.70
2017-07-24T14:18:03.933Z,3.67
2017-07-24T14:20:31.514Z,3.50
2017-07-24T14:22:59.906Z,3.30
2017-07-24T14:25:27.559Z,3.10
2017-07-24T14:27:55.913Z,3.65
2017-07-24T14:30:23.500Z,3.00
2017-07-24T14:32:51.078Z,3.10
2017-07-24T14:35:18.645Z,3.40
2017-07-24T14:37:46.214Z,3.90
2017-07-24T14:40:13.807Z,3.90
2017-07-24T14:42:41.548Z,3.70
2017-07-24T14:45:09.145Z,3.20
2017-07-24T14:47:37.601Z,3.40
2017-07-24T14:50:05.180Z,3.70
2017-07-24T14:52:32.763Z,3.57
2017-07-24T14:55:00.340Z,3.90
2017-07-24T14:57:27.919Z,4.27
2017-07-24T14:59:55.517Z,4.17
2017-07-24T15:02:23.102Z,4.00
2017-07-24T15:04:51.444Z,3.70
2017-07-24T15:07:19.026Z,4.43
2017-07-24T15:09:47.371Z,3.80
2017-07-24T15:12:14.995Z,4.50
2017-07-24T15:14:42.555Z,4.30
2017-07-24T15:17:10.148Z,4.20
2017-07-24T15:19:37.722Z,4.13
2017-07-24T15:22:06.193Z,4.07
2017-07-24T15:24:33.758Z,3.80
2017-07-24T15:27:01.351Z,3.93
2017-07-24T15:29:28.933Z,3.83
2017-07-24T15:31:56.513Z,3.60
2017-07-24T15:34:24.081Z,4.73
2017-07-24T15:36:51.671Z,4.20
2017-07-24T15:39:19.243Z,5.13
2017-07-24T15:41:47.188Z,3.70
2017-07-24T15:44:14.778Z,4.30
2017-07-24T15:46:42.337Z,4.10
2017-07-24T15:49:09.914Z,3.70
2017-07-24T15:51:37.470Z,3.60
2017-07-24T15:54:05.199Z,4.83
2017-07-24T15:56:33.530Z,5.83
2017-07-24T15:59:01.117Z,6.33
2017-07-24T16:01:28.697Z,5.00
2017-07-24T16:03:57.042Z,4.80
2017-07-24T16:06:24.605Z,4.53
2017-07-24T16:08:52.207Z,4.80
2017-07-24T16:11:20.543Z,4.10
2017-07-24T16:13:48.130Z,3.70
2017-07-24T16:16:16.469Z,4.33
2017-07-24T16:18:44.602Z,4.30
2017-07-24T16:21:12.197Z,4.53
2017-07-24T16:23:39.780Z,3.57
2017-07-24T16:26:07.359Z,3.90
2017-07-24T16:28:35.705Z,3.80
2017-07-24T16:31:03.292Z,3.40
2017-07-24T16:33:31.642Z,3.13
2017-07-24T16:36:00.614Z,2.40
2017-07-24T16:38:28.387Z,2.17
2017-07-24T16:40:55.964Z,1.60
2017-07-24T16:43:23.581Z,1.90
2017-07-24T16:45:51.197Z,1.20
2017-07-24T16:48:19.639Z,1.47
2017-07-24T16:50:47.215Z,1.30
2017-07-24T16:53:15.083Z,1.60
2017-07-24T16:55:42.679Z,1.30
2017-07-24T16:58:11.015Z,1.30
2017-07-24T17:00:38.618Z,1.40
2017-07-24T17:03:06.193Z,1.40
2017-07-24T17:05:33.812Z,1.87
2017-07-24T17:08:01.380Z,1.60
2017-07-24T17:10:29.756Z,1.37
2017-07-24T17:12:58.096Z,1.20
2017-07-24T17:15:25.692Z,1.40
2017-07-24T17:17:54.049Z,1.60
2017-07-24T17:20:21.932Z,1.33
2017-07-24T17:22:50.326Z,1.40
2017-07-24T17:25:17.969Z,1.47
2017-07-24T17:27:46.456Z,2.00
2017-07-24T17:30:14.821Z,1.63
2017-07-24T17:32:42.444Z,1.83
2017-07-24T17:35:10.013Z,1.50
2017-07-24T17:37:37.606Z,1.50
2017-07-24T17:40:05.182Z,1.60
2017-07-24T17:42:32.793Z,1.90
2017-07-24T17:45:00.391Z,1.70
2017-07-24T17:47:29.041Z,2.13
2017-07-24T17:49:56.616Z,1.60
2017-07-24T17:52:24.218Z,1.83
2017-07-24T17:54:51.872Z,2.00
2017-07-24T17:57:19.438Z,1.70
2017-07-24T17:59:47.016Z,1.60
2017-07-24T18:02:14.600Z,1.70
2017-07-24T18:04:42.200Z,1.50
2017-07-24T18:07:10.531Z,1.53
2017-07-24T18:09:38.117Z,1.63
2017-07-24T18:12:05.673Z,1.27
2017-07-24T18:14:33.673Z,1.60
2017-07-24T18:17:01.262Z,1.40
2017-07-24T18:19:29.066Z,1.23
2017-07-24T18:21:56.684Z,1.60
2017-07-24T18:24:24.289Z,1.40
2017-07-24T18:26:51.943Z,1.30
2017-07-24T18:29:19.572Z,1.40
2017-07-24T18:31:47.260Z,1.70
2017-07-24T18:34:14.897Z,1.50
2017-07-24T18:36:42.498Z,1.67
2017-07-24T18:39:12.497Z,1.37
2017-07-24T18:41:40.140Z,2.00
2017-07-24T18:44:08.719Z,1.98
2017-07-24T18:46:36.720Z,1.62
2017-07-24T18:49:04.317Z,2.75
2017-07-24T18:51:31.907Z,1.75
2017-07-24T18:53:59.504Z,1.87
2017-07-24T18:56:27.105Z,2.33
2017-07-24T18:58:54.768Z,2.20
2017-07-24T19:01:22.410Z,2.30
2017-07-24T19:03:50.057Z,2.30
2017-07-24T19:06:17.669Z,2.60
2017-07-24T19:08:45.324Z,2.40
2017-07-24T19:11:12.903Z,2.22
2017-07-24T19:13:40.886Z,2.62
2017-07-24T19:16:08.501Z,2.00
2017-07-24T19:18:36.092Z,2.42
2017-07-24T19:21:03.792Z,2.25
2017-07-24T19:23:32.239Z,2.33
2017-07-24T19:26:00.695Z,1.90
2017-07-24T19:28:28.300Z,1.60
2017-07-24T19:30:56.710Z,2.20
2017-07-24T19:33:24.306Z,2.03
2017-07-24T19:35:52.221Z,2.05
2017-07-24T19:38:19.870Z,1.70
2017-07-24T19:40:47.489Z,1.40
2017-07-24T19:43:15.175Z,1.83
2017-07-24T19:45:43.182Z,1.65
2017-07-24T19:48:10.813Z,1.00
2017-07-24T19:50:39.188Z,1.37
2017-07-24T19:53:07.545Z,1.10
2017-07-24T19:55:35.145Z,1.30
2017-07-24T19:58:02.777Z,1.27
2017-07-24T20:00:30.473Z,1.40
2017-07-24T20:02:58.388Z,1.25
2017-07-24T20:05:26.028Z,1.33
2017-07-24T20:07:53.673Z,1.35
2017-07-24T20:10:21.270Z,1.27
2017-07-24T20:12:48.849Z,1.30
2017-07-24T20:15:16.458Z,1.63
2017-07-24T20:17:44.080Z,0.90
2017-07-24T20:20:12.446Z,1.45
2017-07-24T20:22:40.782Z,1.45
2017-07-24T20:25:08.377Z,1.30
2017-07-24T20:27:35.925Z,1.20
2017-07-24T20:30:03.593Z,1.12
2017-07-24T20:32:31.963Z,1.10
2017-07-24T20:34:59.927Z,1.33
2017-07-24T20:37:28.299Z,1.35
2017-07-24T20:39:55.877Z,1.33
2017-07-24T20:42:23.464Z,1.50
2017-07-24T20:44:51.810Z,1.60
2017-07-24T20:47:19.406Z,1.30
2017-07-24T20:49:47.014Z,1.60
2017-07-24T20:52:14.630Z,1.45
2017-07-24T20:54:42.320Z,1.08
2017-07-24T20:57:10.211Z,1.40
2017-07-24T20:59:37.796Z,1.35
2017-07-24T21:02:06.131Z,0.90
2017-07-24T21:04:33.761Z,0.90
2017-07-24T21:07:01.410Z,1.23
2017-07-24T21:09:29.005Z,1.00
2017-07-24T21:11:56.563Z,1.00
2017-07-24T21:14:24.192Z,1.15
2017-07-24T21:16:51.778Z,1.10
2017-07-24T21:19:19.504Z,0.80
2017-07-24T21:21:49.751Z,0.80
2017-07-24T21:24:17.643Z,1.10
2017-07-24T21:26:45.217Z,1.00
2017-07-24T21:29:12.798Z,0.82
2017-07-24T21:31:40.366Z,1.00
2017-07-24T21:34:08.695Z,1.73
2017-07-24T21:36:36.264Z,0.80
2017-07-24T21:39:03.849Z,0.88
2017-07-24T21:41:32.189Z,1.00
2017-07-24T21:43:59.753Z,1.00
2017-07-24T21:46:27.705Z,1.05
2017-07-24T21:48:55.271Z,1.10
2017-07-24T21:51:22.832Z,1.20
2017-07-24T21:53:50.433Z,0.85
2017-07-24T21:56:18.776Z,1.17
2017-07-24T21:58:46.354Z,0.77
2017-07-24T22:01:13.934Z,1.15
2017-07-24T22:03:41.512Z,1.30
2017-07-24T22:06:09.070Z,1.10
2017-07-24T22:08:36.990Z,1.05
2017-07-24T22:11:04.576Z,0.90
2017-07-24T22:13:32.910Z,0.90
2017-07-24T22:16:00.485Z,1.30
2017-07-24T22:18:28.077Z,0.98
2017-07-24T22:20:56.412Z,1.00
2017-07-24T22:23:23.972Z,0.90
2017-07-24T22:25:51.538Z,1.00
2017-07-24T22:28:19.134Z,1.20
2017-07-24T22:30:46.703Z,1.80
2017-07-24T22:33:14.280Z,1.08
2017-07-24T22:35:42.166Z,1.50
2017-07-24T22:38:09.726Z,1.00
2017-07-24T22:40:37.283Z,1.00
2017-07-24T22:43:04.852Z,1.15
2017-07-24T22:45:32.416Z,1.65
2017-07-24T22:47:59.985Z,1.08
2017-07-24T22:50:27.564Z,1.60
2017-07-24T22:52:55.903Z,1.20
2017-07-24T22:55:23.470Z,1.40
2017-07-24T22:57:51.051Z,1.75
2017-07-24T23:00:18.646Z,1.30
2017-07-24T23:02:46.546Z,1.60
2017-07-24T23:05:14.125Z,1.85
2017-07-24T23:07:41.691Z,1.45
2017-07-24T23:10:09.277Z,1.40
2017-07-24T23:12:36.846Z,1.23
2017-07-24T23:15:04.448Z,1.73
2017-07-24T23:17:32.040Z,1.62
2017-07-24T23:20:00.392Z,1.42
2017-07-24T23:22:27.946Z,1.95
2017-07-24T23:24:55.823Z,1.55
2017-07-24T23:27:23.377Z,1.80
2017-07-24T23:29:50.943Z,1.62
2017-07-24T23:32:18.536Z,1.80
2017-07-24T23:34:46.107Z,1.62
2017-07-24T23:37:13.692Z,1.87
2017-07-24T23:39:41.260Z,1.70
2017-07-24T23:42:08.839Z,1.67
2017-07-24T23:44:36.403Z,1.60
2017-07-24T23:47:03.981Z,1.77
2017-07-24T23:49:32.323Z,1.75
2017-07-24T23:51:59.897Z,1.62
2017-07-24T23:54:28.222Z,1.80
2017-07-24T23:56:55.795Z,1.50
2017-07-24T23:59:23.381Z,2.05
